sensor_id;sensor_type;location;lat;lon;timestamp;P1;durP1;ratioP1;P2;durP2;ratioP2
74833;SDS011;63361;52.384;20.930;2023-07-28T00:01:45;7.70;;;3.97;;
74833;SDS011;63361;52.384;20.930;2023-07-28T00:04:10;7.67;;;4.13;;
74833;SDS011;63361;52.384;20.930;2023-07-28T00:06:36;6.57;;;3.90;;
74833;SDS011;63361;52.384;20.930;2023-07-28T00:09:01;7.35;;;4.00;;
74833;SDS011;63361;52.384;20.930;2023-07-28T00:11:27;7.30;;;3.77;;
74833;SDS011;63361;52.384;20.930;2023-07-28T00:13:52;6.77;;;4.07;;
74833;SDS011;63361;52.384;20.930;2023-07-28T00:16:18;5.82;;;3.58;;
74833;SDS011;63361;52.384;20.930;2023-07-28T00:18:43;7.23;;;3.93;;
74833;SDS011;63361;52.384;20.930;2023-07-28T00:21:09;5.87;;;3.40;;
74833;SDS011;63361;52.384;20.930;2023-07-28T00:23:34;6.83;;;3.80;;
74833;SDS011;63361;52.384;20.930;2023-07-28T00:25:59;6.60;;;3.23;;
74833;SDS011;63361;52.384;20.930;2023-07-28T00:28:25;7.03;;;3.80;;
74833;SDS011;63361;52.384;20.930;2023-07-28T00:30:50;9.00;;;3.47;;
74833;SDS011;63361;52.384;20.930;2023-07-28T00:33:16;9.17;;;4.37;;
74833;SDS011;63361;52.384;20.930;2023-07-28T00:35:41;8.13;;;4.18;;
74833;SDS011;63361;52.384;20.930;2023-07-28T00:38:06;7.67;;;4.13;;
74833;SDS011;63361;52.384;20.930;2023-07-28T00:40:32;6.07;;;3.50;;
74833;SDS011;63361;52.384;20.930;2023-07-28T00:42:57;7.80;;;4.13;;
74833;SDS011;63361;52.384;20.930;2023-07-28T00:45:23;8.27;;;3.70;;
74833;SDS011;63361;52.384;20.930;2023-07-28T00:47:48;5.95;;;3.70;;
74833;SDS011;63361;52.384;20.930;2023-07-28T00:50:14;6.77;;;3.80;;
74833;SDS011;63361;52.384;20.930;2023-07-28T00:52:39;7.83;;;3.67;;
74833;SDS011;63361;52.384;20.930;2023-07-28T00:55:05;7.03;;;3.37;;
74833;SDS011;63361;52.384;20.930;2023-07-28T00:57:31;7.07;;;3.35;;
74833;SDS011;63361;52.384;20.930;2023-07-28T00:59:56;6.90;;;3.90;;
74833;SDS011;63361;52.384;20.930;2023-07-28T01:02:22;8.23;;;4.18;;
74833;SDS011;63361;52.384;20.930;2023-07-28T01:04:48;10.37;;;4.20;;
74833;SDS011;63361;52.384;20.930;2023-07-28T01:07:15;8.32;;;3.83;;
74833;SDS011;63361;52.384;20.930;2023-07-28T01:09:52;9.55;;;4.13;;
74833;SDS011;63361;52.384;20.930;2023-07-28T01:12:25;7.85;;;4.18;;
74833;SDS011;63361;52.384;20.930;2023-07-28T01:14:51;9.80;;;4.30;;
74833;SDS011;63361;52.384;20.930;2023-07-28T01:17:16;8.43;;;4.00;;
74833;SDS011;63361;52.384;20.930;2023-07-28T01:19:43;9.15;;;4.20;;
74833;SDS011;63361;52.384;20.930;2023-07-28T01:27:54;10.03;;;3.83;;
74833;SDS011;63361;52.384;20.930;2023-07-28T01:30:21;8.60;;;3.50;;
74833;SDS011;63361;52.384;20.930;2023-07-28T01:32:50;12.13;;;4.50;;
74833;SDS011;63361;52.384;20.930;2023-07-28T01:35:16;7.07;;;4.00;;
74833;SDS011;63361;52.384;20.930;2023-07-28T01:37:41;6.93;;;4.00;;
74833;SDS011;63361;52.384;20.930;2023-07-28T01:40:06;10.37;;;4.50;;
74833;SDS011;63361;52.384;20.930;2023-07-28T01:42:32;7.73;;;4.63;;
74833;SDS011;63361;52.384;20.930;2023-07-28T01:44:58;8.13;;;4.70;;
74833;SDS011;63361;52.384;20.930;2023-07-28T01:47:23;7.60;;;4.47;;
74833;SDS011;63361;52.384;20.930;2023-07-28T01:49:50;7.40;;;4.37;;
74833;SDS011;63361;52.384;20.930;2023-07-28T01:52:15;6.35;;;4.38;;
74833;SDS011;63361;52.384;20.930;2023-07-28T01:54:41;7.20;;;4.10;;
74833;SDS011;63361;52.384;20.930;2023-07-28T01:57:06;6.93;;;4.20;;
74833;SDS011;63361;52.384;20.930;2023-07-28T01:59:31;8.17;;;4.30;;
74833;SDS011;63361;52.384;20.930;2023-07-28T02:01:56;8.60;;;4.77;;
74833;SDS011;63361;52.384;20.930;2023-07-28T02:04:23;7.85;;;4.18;;
74833;SDS011;63361;52.384;20.930;2023-07-28T02:06:48;7.87;;;4.50;;
74833;SDS011;63361;52.384;20.930;2023-07-28T02:09:13;8.23;;;4.27;;
74833;SDS011;63361;52.384;20.930;2023-07-28T02:11:39;8.73;;;4.17;;
74833;SDS011;63361;52.384;20.930;2023-07-28T02:14:04;8.73;;;4.37;;
74833;SDS011;63361;52.384;20.930;2023-07-28T02:16:29;9.73;;;5.03;;
74833;SDS011;63361;52.384;20.930;2023-07-28T02:18:57;10.27;;;4.80;;
74833;SDS011;63361;52.384;20.930;2023-07-28T02:21:22;7.93;;;4.80;;
74833;SDS011;63361;52.384;20.930;2023-07-28T02:23:48;9.30;;;4.30;;
74833;SDS011;63361;52.384;20.930;2023-07-28T02:26:13;7.27;;;4.53;;
74833;SDS011;63361;52.384;20.930;2023-07-28T02:28:39;7.80;;;5.00;;
74833;SDS011;63361;52.384;20.930;2023-07-28T02:31:04;8.80;;;4.35;;
74833;SDS011;63361;52.384;20.930;2023-07-28T02:33:29;10.43;;;4.77;;
74833;SDS011;63361;52.384;20.930;2023-07-28T02:35:56;9.30;;;5.23;;
74833;SDS011;63361;52.384;20.930;2023-07-28T02:38:21;7.80;;;5.25;;
74833;SDS011;63361;52.384;20.930;2023-07-28T02:40:46;8.70;;;5.00;;
74833;SDS011;63361;52.384;20.930;2023-07-28T02:43:12;9.77;;;4.70;;
74833;SDS011;63361;52.384;20.930;2023-07-28T02:45:37;7.37;;;4.67;;
74833;SDS011;63361;52.384;20.930;2023-07-28T02:48:02;8.13;;;4.60;;
74833;SDS011;63361;52.384;20.930;2023-07-28T02:50:28;8.50;;;4.73;;
74833;SDS011;63361;52.384;20.930;2023-07-28T02:52:53;9.33;;;5.13;;
74833;SDS011;63361;52.384;20.930;2023-07-28T02:55:18;7.60;;;4.32;;
74833;SDS011;63361;52.384;20.930;2023-07-28T02:57:44;8.73;;;4.97;;
74833;SDS011;63361;52.384;20.930;2023-07-28T03:00:09;8.30;;;4.70;;
74833;SDS011;63361;52.384;20.930;2023-07-28T03:02:35;8.32;;;5.00;;
74833;SDS011;63361;52.384;20.930;2023-07-28T03:05:01;10.40;;;4.80;;
74833;SDS011;63361;52.384;20.930;2023-07-28T03:07:26;8.43;;;4.50;;
74833;SDS011;63361;52.384;20.930;2023-07-28T03:09:51;8.13;;;5.20;;
74833;SDS011;63361;52.384;20.930;2023-07-28T03:12:17;8.63;;;4.90;;
74833;SDS011;63361;52.384;20.930;2023-07-28T03:14:42;8.75;;;4.32;;
74833;SDS011;63361;52.384;20.930;2023-07-28T03:17:08;8.93;;;5.00;;
74833;SDS011;63361;52.384;20.930;2023-07-28T03:19:33;8.80;;;4.37;;
74833;SDS011;63361;52.384;20.930;2023-07-28T03:21:58;7.20;;;4.33;;
74833;SDS011;63361;52.384;20.930;2023-07-28T03:24:24;11.63;;;4.63;;
74833;SDS011;63361;52.384;20.930;2023-07-28T03:26:49;8.73;;;4.40;;
74833;SDS011;63361;52.384;20.930;2023-07-28T03:29:14;8.53;;;4.80;;
74833;SDS011;63361;52.384;20.930;2023-07-28T03:31:39;7.15;;;4.20;;
74833;SDS011;63361;52.384;20.930;2023-07-28T03:34:05;7.53;;;4.73;;
74833;SDS011;63361;52.384;20.930;2023-07-28T03:36:30;7.07;;;4.60;;
74833;SDS011;63361;52.384;20.930;2023-07-28T03:38:55;8.77;;;4.70;;
74833;SDS011;63361;52.384;20.930;2023-07-28T03:41:21;10.97;;;4.63;;
74833;SDS011;63361;52.384;20.930;2023-07-28T03:43:46;8.57;;;4.83;;
74833;SDS011;63361;52.384;20.930;2023-07-28T03:46:11;8.60;;;4.30;;
74833;SDS011;63361;52.384;20.930;2023-07-28T03:48:37;8.10;;;4.70;;
74833;SDS011;63361;52.384;20.930;2023-07-28T03:51:02;9.40;;;4.67;;
74833;SDS011;63361;52.384;20.930;2023-07-28T03:53:27;8.60;;;4.40;;
74833;SDS011;63361;52.384;20.930;2023-07-28T03:55:53;9.53;;;4.07;;
74833;SDS011;63361;52.384;20.930;2023-07-28T03:58:22;7.18;;;4.32;;
74833;SDS011;63361;52.384;20.930;2023-07-28T04:00:48;8.80;;;4.00;;
74833;SDS011;63361;52.384;20.930;2023-07-28T04:03:13;8.63;;;4.33;;
74833;SDS011;63361;52.384;20.930;2023-07-28T04:05:38;7.33;;;4.40;;
74833;SDS011;63361;52.384;20.930;2023-07-28T04:08:04;8.63;;;4.27;;
74833;SDS011;63361;52.384;20.930;2023-07-28T04:10:29;7.90;;;4.70;;
74833;SDS011;63361;52.384;20.930;2023-07-28T04:12:55;8.63;;;4.53;;
74833;SDS011;63361;52.384;20.930;2023-07-28T04:15:20;6.93;;;4.30;;
74833;SDS011;63361;52.384;20.930;2023-07-28T04:17:45;8.27;;;4.30;;
74833;SDS011;63361;52.384;20.930;2023-07-28T04:20:11;7.93;;;4.60;;
74833;SDS011;63361;52.384;20.930;2023-07-28T04:22:36;8.40;;;4.40;;
74833;SDS011;63361;52.384;20.930;2023-07-28T04:25:01;7.72;;;4.30;;
74833;SDS011;63361;52.384;20.930;2023-07-28T04:27:27;8.50;;;5.00;;
74833;SDS011;63361;52.384;20.930;2023-07-28T04:29:52;7.30;;;4.80;;
74833;SDS011;63361;52.384;20.930;2023-07-28T04:32:17;7.30;;;4.40;;
74833;SDS011;63361;52.384;20.930;2023-07-28T04:34:43;11.70;;;4.50;;
74833;SDS011;63361;52.384;20.930;2023-07-28T04:37:08;8.03;;;4.37;;
74833;SDS011;63361;52.384;20.930;2023-07-28T04:39:33;8.47;;;4.10;;
74833;SDS011;63361;52.384;20.930;2023-07-28T04:41:59;8.30;;;4.87;;
74833;SDS011;63361;52.384;20.930;2023-07-28T04:44:24;7.37;;;3.90;;
74833;SDS011;63361;52.384;20.930;2023-07-28T04:46:49;7.63;;;3.70;;
74833;SDS011;63361;52.384;20.930;2023-07-28T04:49:14;7.77;;;4.03;;
74833;SDS011;63361;52.384;20.930;2023-07-28T04:51:40;6.77;;;3.43;;
74833;SDS011;63361;52.384;20.930;2023-07-28T04:54:05;10.43;;;4.00;;
74833;SDS011;63361;52.384;20.930;2023-07-28T04:56:30;7.97;;;3.37;;
74833;SDS011;63361;52.384;20.930;2023-07-28T04:58:56;8.17;;;3.87;;
74833;SDS011;63361;52.384;20.930;2023-07-28T05:01:23;6.65;;;3.30;;
74833;SDS011;63361;52.384;20.930;2023-07-28T05:03:49;8.37;;;3.30;;
74833;SDS011;63361;52.384;20.930;2023-07-28T05:06:14;7.70;;;3.60;;
74833;SDS011;63361;52.384;20.930;2023-07-28T05:08:39;6.85;;;3.58;;
74833;SDS011;63361;52.384;20.930;2023-07-28T05:11:05;7.07;;;3.37;;
74833;SDS011;63361;52.384;20.930;2023-07-28T05:13:30;10.50;;;3.60;;
74833;SDS011;63361;52.384;20.930;2023-07-28T05:15:55;7.53;;;3.80;;
74833;SDS011;63361;52.384;20.930;2023-07-28T05:18:21;7.00;;;3.17;;
74833;SDS011;63361;52.384;20.930;2023-07-28T05:20:46;5.82;;;3.13;;
74833;SDS011;63361;52.384;20.930;2023-07-28T05:23:12;7.07;;;3.50;;
74833;SDS011;63361;52.384;20.930;2023-07-28T05:25:37;10.83;;;3.50;;
74833;SDS011;63361;52.384;20.930;2023-07-28T05:28:02;10.53;;;3.57;;
74833;SDS011;63361;52.384;20.930;2023-07-28T05:30:28;7.43;;;4.10;;
74833;SDS011;63361;52.384;20.930;2023-07-28T05:32:54;8.43;;;3.30;;
74833;SDS011;63361;52.384;20.930;2023-07-28T05:35:19;11.50;;;3.60;;
74833;SDS011;63361;52.384;20.930;2023-07-28T05:37:45;6.82;;;3.40;;
74833;SDS011;63361;52.384;20.930;2023-07-28T05:40:11;7.90;;;3.65;;
74833;SDS011;63361;52.384;20.930;2023-07-28T05:42:37;7.83;;;3.63;;
74833;SDS011;63361;52.384;20.930;2023-07-28T05:45:02;8.50;;;3.25;;
74833;SDS011;63361;52.384;20.930;2023-07-28T05:47:28;8.60;;;3.43;;
74833;SDS011;63361;52.384;20.930;2023-07-28T05:49:53;8.17;;;3.33;;
74833;SDS011;63361;52.384;20.930;2023-07-28T05:52:19;6.77;;;3.40;;
74833;SDS011;63361;52.384;20.930;2023-07-28T05:54:45;13.00;;;3.80;;
74833;SDS011;63361;52.384;20.930;2023-07-28T05:57:10;11.50;;;3.90;;
74833;SDS011;63361;52.384;20.930;2023-07-28T05:59:36;8.95;;;3.30;;
74833;SDS011;63361;52.384;20.930;2023-07-28T06:02:01;9.10;;;3.47;;
74833;SDS011;63361;52.384;20.930;2023-07-28T06:04:26;8.10;;;3.33;;
74833;SDS011;63361;52.384;20.930;2023-07-28T06:06:52;9.90;;;3.40;;
74833;SDS011;63361;52.384;20.930;2023-07-28T06:09:17;7.33;;;3.57;;
74833;SDS011;63361;52.384;20.930;2023-07-28T06:11:43;8.97;;;3.50;;
74833;SDS011;63361;52.384;20.930;2023-07-28T06:14:09;10.77;;;3.63;;
74833;SDS011;63361;52.384;20.930;2023-07-28T06:16:34;10.67;;;3.57;;
74833;SDS011;63361;52.384;20.930;2023-07-28T06:18:59;7.60;;;3.03;;
74833;SDS011;63361;52.384;20.930;2023-07-28T06:21:25;8.10;;;3.70;;
74833;SDS011;63361;52.384;20.930;2023-07-28T06:23:50;6.50;;;3.17;;
74833;SDS011;63361;52.384;20.930;2023-07-28T06:26:15;7.27;;;3.43;;
74833;SDS011;63361;52.384;20.930;2023-07-28T06:28:41;8.10;;;3.15;;
74833;SDS011;63361;52.384;20.930;2023-07-28T06:31:06;9.00;;;3.40;;
74833;SDS011;63361;52.384;20.930;2023-07-28T06:33:32;6.30;;;3.20;;
74833;SDS011;63361;52.384;20.930;2023-07-28T06:35:57;10.83;;;3.63;;
74833;SDS011;63361;52.384;20.930;2023-07-28T06:38:22;6.67;;;3.17;;
74833;SDS011;63361;52.384;20.930;2023-07-28T06:40:48;8.45;;;3.50;;
74833;SDS011;63361;52.384;20.930;2023-07-28T06:43:13;7.63;;;3.10;;
74833;SDS011;63361;52.384;20.930;2023-07-28T06:45:38;9.43;;;3.23;;
74833;SDS011;63361;52.384;20.930;2023-07-28T06:48:04;9.83;;;3.40;;
74833;SDS011;63361;52.384;20.930;2023-07-28T06:50:29;7.53;;;3.50;;
74833;SDS011;63361;52.384;20.930;2023-07-28T06:52:55;9.38;;;3.50;;
74833;SDS011;63361;52.384;20.930;2023-07-28T06:55:20;7.13;;;3.30;;
74833;SDS011;63361;52.384;20.930;2023-07-28T06:57:47;7.70;;;3.05;;
74833;SDS011;63361;52.384;20.930;2023-07-28T07:00:12;8.75;;;3.30;;
74833;SDS011;63361;52.384;20.930;2023-07-28T07:02:39;6.95;;;3.00;;
74833;SDS011;63361;52.384;20.930;2023-07-28T07:05:05;8.27;;;3.27;;
74833;SDS011;63361;52.384;20.930;2023-07-28T07:07:31;12.18;;;3.47;;
74833;SDS011;63361;52.384;20.930;2023-07-28T07:09:57;6.90;;;3.30;;
74833;SDS011;63361;52.384;20.930;2023-07-28T07:12:22;6.78;;;2.75;;
74833;SDS011;63361;52.384;20.930;2023-07-28T07:14:47;7.53;;;3.03;;
74833;SDS011;63361;52.384;20.930;2023-07-28T07:17:13;9.33;;;3.00;;
74833;SDS011;63361;52.384;20.930;2023-07-28T07:19:38;9.80;;;3.60;;
74833;SDS011;63361;52.384;20.930;2023-07-28T07:22:04;9.33;;;3.60;;
74833;SDS011;63361;52.384;20.930;2023-07-28T07:24:29;6.85;;;3.47;;
74833;SDS011;63361;52.384;20.930;2023-07-28T07:26:55;9.17;;;3.30;;
74833;SDS011;63361;52.384;20.930;2023-07-28T07:29:20;6.30;;;3.35;;
74833;SDS011;63361;52.384;20.930;2023-07-28T07:31:46;7.33;;;3.37;;
74833;SDS011;63361;52.384;20.930;2023-07-28T07:34:11;6.57;;;3.40;;
74833;SDS011;63361;52.384;20.930;2023-07-28T07:36:36;9.60;;;3.97;;
74833;SDS011;63361;52.384;20.930;2023-07-28T07:39:02;6.33;;;3.70;;
74833;SDS011;63361;52.384;20.930;2023-07-28T07:41:30;10.00;;;4.00;;
74833;SDS011;63361;52.384;20.930;2023-07-28T07:43:55;7.50;;;3.67;;
74833;SDS011;63361;52.384;20.930;2023-07-28T07:46:21;8.87;;;4.70;;
74833;SDS011;63361;52.384;20.930;2023-07-28T07:48:46;7.97;;;4.23;;
74833;SDS011;63361;52.384;20.930;2023-07-28T07:51:12;9.47;;;4.77;;
74833;SDS011;63361;52.384;20.930;2023-07-28T07:53:37;8.73;;;4.93;;
74833;SDS011;63361;52.384;20.930;2023-07-28T07:56:03;11.27;;;5.07;;
74833;SDS011;63361;52.384;20.930;2023-07-28T07:58:29;12.52;;;5.32;;
74833;SDS011;63361;52.384;20.930;2023-07-28T08:00:55;11.87;;;4.60;;
74833;SDS011;63361;52.384;20.930;2023-07-28T08:03:21;8.75;;;5.07;;
74833;SDS011;63361;52.384;20.930;2023-07-28T08:05:46;10.43;;;4.93;;
74833;SDS011;63361;52.384;20.930;2023-07-28T08:08:12;7.80;;;4.43;;
74833;SDS011;63361;52.384;20.930;2023-07-28T08:10:40;8.38;;;5.38;;
74833;SDS011;63361;52.384;20.930;2023-07-28T08:13:05;8.93;;;5.60;;
74833;SDS011;63361;52.384;20.930;2023-07-28T08:15:31;7.87;;;4.83;;
74833;SDS011;63361;52.384;20.930;2023-07-28T08:17:56;19.30;;;5.50;;
74833;SDS011;63361;52.384;20.930;2023-07-28T08:20:21;19.80;;;5.47;;
74833;SDS011;63361;52.384;20.930;2023-07-28T08:22:47;13.77;;;5.00;;
74833;SDS011;63361;52.384;20.930;2023-07-28T08:25:12;12.05;;;5.65;;
74833;SDS011;63361;52.384;20.930;2023-07-28T08:27:37;10.60;;;5.63;;
74833;SDS011;63361;52.384;20.930;2023-07-28T08:30:03;9.80;;;5.73;;
74833;SDS011;63361;52.384;20.930;2023-07-28T08:32:30;13.45;;;5.60;;
74833;SDS011;63361;52.384;20.930;2023-07-28T08:34:55;9.50;;;5.13;;
74833;SDS011;63361;52.384;20.930;2023-07-28T08:37:20;8.80;;;5.40;;
74833;SDS011;63361;52.384;20.930;2023-07-28T08:39:46;10.13;;;5.87;;
74833;SDS011;63361;52.384;20.930;2023-07-28T08:42:11;10.73;;;5.70;;
74833;SDS011;63361;52.384;20.930;2023-07-28T08:44:37;13.73;;;5.85;;
74833;SDS011;63361;52.384;20.930;2023-07-28T08:47:03;9.57;;;5.27;;
74833;SDS011;63361;52.384;20.930;2023-07-28T08:49:29;12.00;;;5.60;;
74833;SDS011;63361;52.384;20.930;2023-07-28T08:52:00;10.80;;;6.17;;
74833;SDS011;63361;52.384;20.930;2023-07-28T08:54:27;10.07;;;5.85;;
74833;SDS011;63361;52.384;20.930;2023-07-28T08:56:52;11.73;;;6.50;;
74833;SDS011;63361;52.384;20.930;2023-07-28T08:59:21;10.77;;;5.80;;
74833;SDS011;63361;52.384;20.930;2023-07-28T09:01:49;11.50;;;5.47;;
74833;SDS011;63361;52.384;20.930;2023-07-28T09:04:15;9.98;;;5.60;;
74833;SDS011;63361;52.384;20.930;2023-07-28T09:06:44;9.73;;;5.27;;
74833;SDS011;63361;52.384;20.930;2023-07-28T09:09:09;11.00;;;5.82;;
74833;SDS011;63361;52.384;20.930;2023-07-28T09:11:43;10.40;;;5.87;;
74833;SDS011;63361;52.384;20.930;2023-07-28T09:14:11;10.80;;;6.25;;
74833;SDS011;63361;52.384;20.930;2023-07-28T09:16:37;9.05;;;5.35;;
74833;SDS011;63361;52.384;20.930;2023-07-28T09:19:06;10.73;;;6.33;;
74833;SDS011;63361;52.384;20.930;2023-07-28T09:21:32;7.95;;;5.07;;
74833;SDS011;63361;52.384;20.930;2023-07-28T09:24:03;8.90;;;5.30;;
74833;SDS011;63361;52.384;20.930;2023-07-28T09:26:41;11.13;;;5.78;;
74833;SDS011;63361;52.384;20.930;2023-07-28T09:29:12;10.73;;;5.35;;
74833;SDS011;63361;52.384;20.930;2023-07-28T09:31:47;10.63;;;5.13;;
74833;SDS011;63361;52.384;20.930;2023-07-28T09:34:27;10.68;;;5.70;;
74833;SDS011;63361;52.384;20.930;2023-07-28T09:36:53;11.27;;;5.40;;
74833;SDS011;63361;52.384;20.930;2023-07-28T09:39:19;8.30;;;5.45;;
74833;SDS011;63361;52.384;20.930;2023-07-28T09:41:46;9.38;;;5.50;;
74833;SDS011;63361;52.384;20.930;2023-07-28T09:44:12;9.05;;;5.50;;
74833;SDS011;63361;52.384;20.930;2023-07-28T09:46:37;9.83;;;5.90;;
74833;SDS011;63361;52.384;20.930;2023-07-28T09:49:16;8.80;;;4.88;;
74833;SDS011;63361;52.384;20.930;2023-07-28T09:51:46;8.93;;;5.50;;
74833;SDS011;63361;52.384;20.930;2023-07-28T09:54:17;10.13;;;5.80;;
74833;SDS011;63361;52.384;20.930;2023-07-28T09:56:54;8.20;;;5.45;;
74833;SDS011;63361;52.384;20.930;2023-07-28T09:59:42;8.23;;;5.47;;
74833;SDS011;63361;52.384;20.930;2023-07-28T10:02:10;10.57;;;5.72;;
74833;SDS011;63361;52.384;20.930;2023-07-28T10:04:35;11.83;;;5.97;;
74833;SDS011;63361;52.384;20.930;2023-07-28T10:07:02;12.52;;;5.85;;
74833;SDS011;63361;52.384;20.930;2023-07-28T10:09:30;10.10;;;6.00;;
74833;SDS011;63361;52.384;20.930;2023-07-28T10:11:56;7.63;;;5.27;;
74833;SDS011;63361;52.384;20.930;2023-07-28T10:14:25;11.93;;;5.70;;
74833;SDS011;63361;52.384;20.930;2023-07-28T10:16:56;12.48;;;5.47;;
74833;SDS011;63361;52.384;20.930;2023-07-28T10:19:24;11.23;;;5.67;;
74833;SDS011;63361;52.384;20.930;2023-07-28T10:21:59;11.55;;;5.80;;
74833;SDS011;63361;52.384;20.930;2023-07-28T10:29:59;9.82;;;6.00;;
74833;SDS011;63361;52.384;20.930;2023-07-28T10:32:26;10.03;;;6.00;;
74833;SDS011;63361;52.384;20.930;2023-07-28T10:35:00;8.52;;;5.95;;
74833;SDS011;63361;52.384;20.930;2023-07-28T10:37:30;9.55;;;6.20;;
74833;SDS011;63361;52.384;20.930;2023-07-28T10:43:00;10.68;;;6.68;;
74833;SDS011;63361;52.384;20.930;2023-07-28T10:45:27;11.50;;;6.38;;
74833;SDS011;63361;52.384;20.930;2023-07-28T10:47:54;14.53;;;7.00;;
74833;SDS011;63361;52.384;20.930;2023-07-28T10:50:26;12.20;;;7.38;;
74833;SDS011;63361;52.384;20.930;2023-07-28T10:52:53;11.18;;;7.53;;
74833;SDS011;63361;52.384;20.930;2023-07-28T10:55:20;11.60;;;7.97;;
74833;SDS011;63361;52.384;20.930;2023-07-28T10:57:47;12.10;;;7.40;;
74833;SDS011;63361;52.384;20.930;2023-07-28T11:00:14;11.82;;;7.65;;
74833;SDS011;63361;52.384;20.930;2023-07-28T11:02:42;10.68;;;7.35;;
74833;SDS011;63361;52.384;20.930;2023-07-28T11:07:56;9.65;;;6.10;;
74833;SDS011;63361;52.384;20.930;2023-07-28T11:10:23;9.15;;;6.20;;
74833;SDS011;63361;52.384;20.930;2023-07-28T11:12:50;8.85;;;6.40;;
74833;SDS011;63361;52.384;20.930;2023-07-28T11:15:17;12.18;;;5.90;;
74833;SDS011;63361;52.384;20.930;2023-07-28T11:17:47;10.33;;;5.60;;
74833;SDS011;63361;52.384;20.930;2023-07-28T11:20:17;9.75;;;5.60;;
74833;SDS011;63361;52.384;20.930;2023-07-28T11:22:52;8.40;;;5.53;;
74833;SDS011;63361;52.384;20.930;2023-07-28T11:25:17;11.20;;;5.20;;
74833;SDS011;63361;52.384;20.930;2023-07-28T11:27:44;8.43;;;5.57;;
74833;SDS011;63361;52.384;20.930;2023-07-28T11:30:16;10.48;;;5.78;;
74833;SDS011;63361;52.384;20.930;2023-07-28T11:32:43;10.48;;;5.78;;
74833;SDS011;63361;52.384;20.930;2023-07-28T11:35:10;10.23;;;5.10;;
74833;SDS011;63361;52.384;20.930;2023-07-28T11:37:37;8.20;;;5.40;;
74833;SDS011;63361;52.384;20.930;2023-07-28T11:40:05;8.77;;;5.00;;
74833;SDS011;63361;52.384;20.930;2023-07-28T11:42:38;7.47;;;4.90;;
74833;SDS011;63361;52.384;20.930;2023-07-28T11:45:05;8.55;;;4.72;;
74833;SDS011;63361;52.384;20.930;2023-07-28T11:47:32;8.40;;;4.25;;
74833;SDS011;63361;52.384;20.930;2023-07-28T11:49:57;8.30;;;4.80;;
74833;SDS011;63361;52.384;20.930;2023-07-28T11:52:32;8.07;;;4.72;;
74833;SDS011;63361;52.384;20.930;2023-07-28T11:54:59;7.07;;;4.15;;
74833;SDS011;63361;52.384;20.930;2023-07-28T11:57:29;7.90;;;3.70;;
74833;SDS011;63361;52.384;20.930;2023-07-28T11:59:58;7.05;;;3.90;;
74833;SDS011;63361;52.384;20.930;2023-07-28T12:02:27;7.47;;;3.63;;
74833;SDS011;63361;52.384;20.930;2023-07-28T12:04:54;7.25;;;3.70;;
74833;SDS011;63361;52.384;20.930;2023-07-28T12:07:26;6.57;;;3.63;;
74833;SDS011;63361;52.384;20.930;2023-07-28T12:09:54;7.13;;;3.20;;
74833;SDS011;63361;52.384;20.930;2023-07-28T12:12:23;6.57;;;3.28;;
74833;SDS011;63361;52.384;20.930;2023-07-28T12:14:57;8.47;;;3.20;;
74833;SDS011;63361;52.384;20.930;2023-07-28T12:17:29;6.55;;;3.00;;
74833;SDS011;63361;52.384;20.930;2023-07-28T12:19:59;6.10;;;2.70;;
74833;SDS011;63361;52.384;20.930;2023-07-28T12:22:36;4.93;;;2.50;;
74833;SDS011;63361;52.384;20.930;2023-07-28T12:25:02;4.75;;;2.03;;
74833;SDS011;63361;52.384;20.930;2023-07-28T12:27:29;6.13;;;2.80;;
74833;SDS011;63361;52.384;20.930;2023-07-28T12:29:55;4.38;;;2.33;;
74833;SDS011;63361;52.384;20.930;2023-07-28T12:32:20;4.70;;;2.20;;
74833;SDS011;63361;52.384;20.930;2023-07-28T12:34:46;4.65;;;1.95;;
74833;SDS011;63361;52.384;20.930;2023-07-28T12:37:13;5.45;;;1.80;;
74833;SDS011;63361;52.384;20.930;2023-07-28T12:39:38;3.87;;;1.77;;
74833;SDS011;63361;52.384;20.930;2023-07-28T12:42:05;4.60;;;1.80;;
74833;SDS011;63361;52.384;20.930;2023-07-28T12:44:31;9.98;;;2.10;;
74833;SDS011;63361;52.384;20.930;2023-07-28T12:46:56;5.23;;;2.30;;
74833;SDS011;63361;52.384;20.930;2023-07-28T12:49:22;5.83;;;1.77;;
74833;SDS011;63361;52.384;20.930;2023-07-28T12:51:47;11.20;;;2.10;;
74833;SDS011;63361;52.384;20.930;2023-07-28T12:54:12;5.03;;;1.45;;
74833;SDS011;63361;52.384;20.930;2023-07-28T12:56:38;4.97;;;1.53;;
74833;SDS011;63361;52.384;20.930;2023-07-28T12:59:03;3.33;;;1.03;;
74833;SDS011;63361;52.384;20.930;2023-07-28T13:01:29;4.07;;;1.10;;
74833;SDS011;63361;52.384;20.930;2023-07-28T13:03:54;2.87;;;1.17;;
74833;SDS011;63361;52.384;20.930;2023-07-28T13:06:21;3.00;;;1.10;;
74833;SDS011;63361;52.384;20.930;2023-07-28T13:08:46;3.30;;;1.08;;
74833;SDS011;63361;52.384;20.930;2023-07-28T13:11:11;4.47;;;1.50;;
74833;SDS011;63361;52.384;20.930;2023-07-28T13:13:39;4.07;;;1.03;;
74833;SDS011;63361;52.384;20.930;2023-07-28T13:16:04;4.45;;;1.30;;
74833;SDS011;63361;52.384;20.930;2023-07-28T13:18:30;3.55;;;1.23;;
74833;SDS011;63361;52.384;20.930;2023-07-28T13:20:57;2.97;;;1.10;;
74833;SDS011;63361;52.384;20.930;2023-07-28T13:23:23;3.20;;;1.10;;
74833;SDS011;63361;52.384;20.930;2023-07-28T13:25:48;5.17;;;1.23;;
74833;SDS011;63361;52.384;20.930;2023-07-28T13:28:13;4.23;;;1.60;;
74833;SDS011;63361;52.384;20.930;2023-07-28T13:30:39;3.10;;;1.10;;
74833;SDS011;63361;52.384;20.930;2023-07-28T13:33:05;4.20;;;1.17;;
74833;SDS011;63361;52.384;20.930;2023-07-28T13:35:31;4.75;;;1.63;;
74833;SDS011;63361;52.384;20.930;2023-07-28T13:37:57;4.55;;;1.50;;
74833;SDS011;63361;52.384;20.930;2023-07-28T13:40:22;5.63;;;1.63;;
74833;SDS011;63361;52.384;20.930;2023-07-28T13:42:48;5.17;;;1.60;;
74833;SDS011;63361;52.384;20.930;2023-07-28T13:45:13;3.20;;;1.20;;
74833;SDS011;63361;52.384;20.930;2023-07-28T13:47:39;3.88;;;1.40;;
74833;SDS011;63361;52.384;20.930;2023-07-28T13:50:04;5.03;;;1.30;;
74833;SDS011;63361;52.384;20.930;2023-07-28T13:52:30;3.90;;;1.42;;
74833;SDS011;63361;52.384;20.930;2023-07-28T13:54:55;4.97;;;1.67;;
74833;SDS011;63361;52.384;20.930;2023-07-28T13:57:21;3.50;;;1.20;;
74833;SDS011;63361;52.384;20.930;2023-07-28T13:59:46;7.03;;;1.27;;
74833;SDS011;63361;52.384;20.930;2023-07-28T14:02:11;3.07;;;1.07;;
74833;SDS011;63361;52.384;20.930;2023-07-28T14:04:37;5.03;;;1.20;;
74833;SDS011;63361;52.384;20.930;2023-07-28T14:07:02;5.50;;;1.50;;
74833;SDS011;63361;52.384;20.930;2023-07-28T14:09:28;4.23;;;1.23;;
74833;SDS011;63361;52.384;20.930;2023-07-28T14:11:53;3.73;;;1.30;;
74833;SDS011;63361;52.384;20.930;2023-07-28T14:14:18;5.90;;;1.30;;
74833;SDS011;63361;52.384;20.930;2023-07-28T14:16:44;4.00;;;1.23;;
74833;SDS011;63361;52.384;20.930;2023-07-28T14:19:09;4.72;;;1.27;;
74833;SDS011;63361;52.384;20.930;2023-07-28T14:21:34;4.00;;;1.40;;
74833;SDS011;63361;52.384;20.930;2023-07-28T14:24:02;3.95;;;1.20;;
74833;SDS011;63361;52.384;20.930;2023-07-28T14:26:29;4.33;;;1.40;;
74833;SDS011;63361;52.384;20.930;2023-07-28T14:28:55;3.63;;;1.38;;
74833;SDS011;63361;52.384;20.930;2023-07-28T14:31:20;4.20;;;1.20;;
74833;SDS011;63361;52.384;20.930;2023-07-28T14:33:45;3.40;;;1.20;;
74833;SDS011;63361;52.384;20.930;2023-07-28T14:36:10;3.47;;;1.30;;
74833;SDS011;63361;52.384;20.930;2023-07-28T14:38:36;3.33;;;1.37;;
74833;SDS011;63361;52.384;20.930;2023-07-28T14:41:01;7.03;;;1.30;;
74833;SDS011;63361;52.384;20.930;2023-07-28T14:43:26;3.90;;;1.40;;